AWST,Max TemperatureF,Mean TemperatureF,Min TemperatureF,Max Dew PointF,MeanDew PointF,Min DewpointF,Max Humidity, Mean Humidity, Min Humidity, Max Sea Level PressureIn, Mean Sea Level PressureIn, Min Sea Level PressureIn, Max VisibilityMiles, Mean VisibilityMiles, Min VisibilityMiles, Max Wind SpeedMPH, Mean Wind SpeedMPH, Max Gust SpeedMPH,PrecipitationIn, CloudCover, Events, WindDirDegrees
2013-7-1,84,75,66,46,42,36,49,32,13,30.07,30.02,29.94,,,,13,10,,0.00,,,125
2013-7-2,85,72,58,37,34,32,42,25,8,30.07,30.02,29.94,,,,10,8,,0.00,,,120
2013-7-3,84,70,55,38,35,30,51,28,9,30.05,29.98,29.91,,,,10,8,,0.00,,,125
2013-7-4,86,69,52,39,34,30,48,28,7,30.02,29.96,29.88,,,,9,7,,0.00,,,126
2013-7-5,86,72,58,37,34,28,45,25,7,30.02,29.96,29.89,,,,13,8,,0.00,,,129
2013-7-6,90,74,59,34,31,27,34,21,6,30.02,29.96,29.89,,,,10,8,,0.00,,,115
2013-7-7,92,76,59,48,40,30,56,29,10,30.01,29.95,29.89,,,,12,7,,0.00,,,96
2013-7-8,92,77,62,56,51,46,59,41,15,30.01,29.96,29.89,,,,8,4,,0.00,,,149
2013-7-9,91,78,66,56,49,46,50,36,17,30.02,29.95,29.88,,,,12,8,,0.00,,,131
2013-7-10,95,82,68,59,52,45,73,40,16,29.95,29.90,29.83,,,,12,7,,0.00,,,88
2013-7-11,94,76,59,61,58,52,88,55,17,29.99,29.93,29.86,,,,8,3,,0.00,,,302
2013-7-12,92,76,60,61,57,54,88,57,21,29.99,29.93,29.83,,,,7,4,,0.00,,,233
2013-7-13,95,78,61,63,59,55,94,56,20,29.98,29.91,29.83,,,,11,3,,0.00,,,140
2013-7-14,97,82,67,59,57,55,68,43,19,29.97,29.91,29.85,,,,27,8,,0.00,,,133
2013-7-15,96,80,65,57,54,50,68,39,16,30.01,29.93,29.86,,,,29,10,,0.00,,,127
2013-7-16,86,76,65,54,51,50,60,43,22,29.99,29.94,29.91,,,,16,10,,0.00,,,131
2013-7-17,,,,,,,,,,,,,,,,,,,,,,
2013-7-18,82,72,62,43,42,41,45,33,14,29.95,29.91,29.86,,,,12,8,,0.00,,,165
2013-7-19,81,70,59,41,35,28,45,28,11,30.02,29.96,29.91,,,,17,12,,0.00,,,148
2013-7-20,81,70,58,39,35,30,34,26,13,30.01,29.94,29.86,,,,20,14,24,0.00,5,,137
2013-7-21,88,76,64,45,41,37,38,28,12,29.95,29.89,29.80,,,,15,10,,0.00,4,,120
2013-7-22,91,78,64,55,46,37,64,34,18,30.01,29.94,29.89,,,,12,9,,0.00,3,,101
2013-7-23,91,77,63,45,42,39,46,27,10,30.09,30.03,29.98,,,,12,9,,0.00,6,,108
2013-7-24,83,72,60,39,28,14,37,20,4,30.14,30.06,30.01,,,,16,12,,0.00,,,117
2013-7-25,83,68,54,23,21,18,29,16,4,30.12,30.05,29.98,,,,13,10,,0.00,,,118
2013-7-26,86,70,53,43,28,19,67,23,5,30.05,30.00,29.92,,,,14,8,,0.00,,,18
2013-7-27,86,68,49,50,36,23,88,42,4,30.04,29.98,29.89,,,,10,5,,0.00,,,214
2013-7-28,88,69,50,46,33,22,82,32,4,30.04,29.97,29.91,,,,12,6,,0.00,,,154
2013-7-29,90,74,59,36,32,25,42,21,5,30.04,29.97,29.89,,,,17,10,,0.00,,,142
2013-7-30,94,77,60,46,37,30,55,25,6,29.95,29.91,29.83,,,,13,8,,0.00,,,140
2013-7-31,93,75,57,50,42,39,59,32,9,29.95,29.89,29.83,,,,12,6,,0.00,6,,207